sensor_id;sensor_type;location;lat;lon;timestamp;P1;durP1;ratioP1;P2;durP2;ratioP2
73919;SDS011;62266;53.348;-1.496;2022-11-15T00:00:46;6.53;;;2.70;;
73919;SDS011;62266;53.348;-1.496;2022-11-15T00:03:19;4.57;;;2.40;;
73919;SDS011;62266;53.348;-1.496;2022-11-15T00:05:46;4.20;;;2.27;;
73919;SDS011;62266;53.348;-1.496;2022-11-15T00:08:11;2.85;;;2.13;;
73919;SDS011;62266;53.348;-1.496;2022-11-15T00:10:37;4.30;;;2.30;;
73919;SDS011;62266;53.348;-1.496;2022-11-15T00:13:12;4.10;;;1.75;;
73919;SDS011;62266;53.348;-1.496;2022-11-15T00:15:39;3.28;;;2.00;;
73919;SDS011;62266;53.348;-1.496;2022-11-15T00:18:06;5.50;;;1.70;;
73919;SDS011;62266;53.348;-1.496;2022-11-15T00:20:37;4.05;;;2.15;;
73919;SDS011;62266;53.348;-1.496;2022-11-15T00:23:03;7.50;;;1.95;;
73919;SDS011;62266;53.348;-1.496;2022-11-15T00:25:29;3.22;;;1.48;;
73919;SDS011;62266;53.348;-1.496;2022-11-15T00:27:56;3.00;;;1.63;;
73919;SDS011;62266;53.348;-1.496;2022-11-15T00:30:23;4.17;;;1.57;;
73919;SDS011;62266;53.348;-1.496;2022-11-15T00:32:49;3.50;;;1.70;;
73919;SDS011;62266;53.348;-1.496;2022-11-15T00:35:14;4.13;;;1.70;;
73919;SDS011;62266;53.348;-1.496;2022-11-15T00:37:40;4.60;;;1.90;;
73919;SDS011;62266;53.348;-1.496;2022-11-15T00:40:06;10.10;;;4.78;;
73919;SDS011;62266;53.348;-1.496;2022-11-15T00:42:33;15.07;;;4.97;;
73919;SDS011;62266;53.348;-1.496;2022-11-15T00:44:58;8.00;;;3.30;;
73919;SDS011;62266;53.348;-1.496;2022-11-15T00:47:24;9.50;;;3.70;;
73919;SDS011;62266;53.348;-1.496;2022-11-15T00:49:49;8.60;;;2.70;;
73919;SDS011;62266;53.348;-1.496;2022-11-15T00:52:15;5.43;;;2.60;;
73919;SDS011;62266;53.348;-1.496;2022-11-15T00:54:41;6.65;;;2.50;;
73919;SDS011;62266;53.348;-1.496;2022-11-15T00:57:06;6.03;;;2.40;;
73919;SDS011;62266;53.348;-1.496;2022-11-15T00:59:34;11.05;;;2.75;;
73919;SDS011;62266;53.348;-1.496;2022-11-15T01:02:00;5.18;;;1.85;;
73919;SDS011;62266;53.348;-1.496;2022-11-15T01:04:26;6.67;;;2.10;;
73919;SDS011;62266;53.348;-1.496;2022-11-15T01:06:51;7.57;;;1.83;;
73919;SDS011;62266;53.348;-1.496;2022-11-15T01:09:17;5.03;;;2.07;;
73919;SDS011;62266;53.348;-1.496;2022-11-15T01:11:42;5.53;;;1.90;;
73919;SDS011;62266;53.348;-1.496;2022-11-15T01:14:08;4.70;;;2.10;;
73919;SDS011;62266;53.348;-1.496;2022-11-15T01:16:33;6.63;;;2.23;;
73919;SDS011;62266;53.348;-1.496;2022-11-15T01:18:59;12.05;;;1.92;;
73919;SDS011;62266;53.348;-1.496;2022-11-15T01:21:25;7.50;;;2.10;;
73919;SDS011;62266;53.348;-1.496;2022-11-15T01:23:55;5.80;;;1.83;;
73919;SDS011;62266;53.348;-1.496;2022-11-15T01:26:21;4.88;;;1.50;;
73919;SDS011;62266;53.348;-1.496;2022-11-15T01:28:47;4.55;;;2.10;;
73919;SDS011;62266;53.348;-1.496;2022-11-15T01:31:14;7.70;;;2.10;;
73919;SDS011;62266;53.348;-1.496;2022-11-15T01:33:41;8.98;;;2.60;;
73919;SDS011;62266;53.348;-1.496;2022-11-15T01:36:07;5.70;;;3.70;;
73919;SDS011;62266;53.348;-1.496;2022-11-15T01:38:35;6.93;;;3.45;;
73919;SDS011;62266;53.348;-1.496;2022-11-15T01:41:01;7.00;;;2.70;;
73919;SDS011;62266;53.348;-1.496;2022-11-15T01:43:28;8.27;;;2.95;;
73919;SDS011;62266;53.348;-1.496;2022-11-15T01:46:06;8.50;;;2.60;;
73919;SDS011;62266;53.348;-1.496;2022-11-15T01:48:40;7.53;;;2.65;;
73919;SDS011;62266;53.348;-1.496;2022-11-15T01:51:07;6.60;;;1.93;;
73919;SDS011;62266;53.348;-1.496;2022-11-15T01:53:34;7.75;;;2.03;;
73919;SDS011;62266;53.348;-1.496;2022-11-15T01:56:05;6.05;;;1.85;;
73919;SDS011;62266;53.348;-1.496;2022-11-15T01:58:32;6.67;;;2.23;;
73919;SDS011;62266;53.348;-1.496;2022-11-15T02:00:58;6.60;;;1.73;;
73919;SDS011;62266;53.348;-1.496;2022-11-15T02:03:25;9.00;;;1.80;;
73919;SDS011;62266;53.348;-1.496;2022-11-15T02:05:54;4.25;;;1.95;;
73919;SDS011;62266;53.348;-1.496;2022-11-15T02:08:22;6.70;;;2.35;;
73919;SDS011;62266;53.348;-1.496;2022-11-15T02:10:48;5.38;;;1.52;;
73919;SDS011;62266;53.348;-1.496;2022-11-15T02:13:14;5.70;;;1.60;;
73919;SDS011;62266;53.348;-1.496;2022-11-15T02:15:44;7.88;;;1.95;;
73919;SDS011;62266;53.348;-1.496;2022-11-15T02:18:20;4.97;;;2.25;;
73919;SDS011;62266;53.348;-1.496;2022-11-15T02:23:50;6.20;;;1.70;;
73919;SDS011;62266;53.348;-1.496;2022-11-15T02:26:45;3.15;;;1.58;;
73919;SDS011;62266;53.348;-1.496;2022-11-15T02:32:06;4.18;;;1.52;;
73919;SDS011;62266;53.348;-1.496;2022-11-15T02:34:54;9.13;;;1.67;;
73919;SDS011;62266;53.348;-1.496;2022-11-15T02:40:16;5.93;;;1.50;;
73919;SDS011;62266;53.348;-1.496;2022-11-15T02:42:45;5.20;;;1.35;;
73919;SDS011;62266;53.348;-1.496;2022-11-15T02:45:39;6.97;;;1.52;;
73919;SDS011;62266;53.348;-1.496;2022-11-15T02:48:07;6.07;;;1.70;;
73919;SDS011;62266;53.348;-1.496;2022-11-15T02:50:33;5.60;;;1.63;;
73919;SDS011;62266;53.348;-1.496;2022-11-15T02:52:59;5.53;;;1.85;;
73919;SDS011;62266;53.348;-1.496;2022-11-15T02:55:34;5.33;;;1.53;;
73919;SDS011;62266;53.348;-1.496;2022-11-15T03:11:14;5.07;;;1.52;;
73919;SDS011;62266;53.348;-1.496;2022-11-15T03:13:46;5.35;;;1.55;;
73919;SDS011;62266;53.348;-1.496;2022-11-15T03:16:40;5.83;;;1.70;;
73919;SDS011;62266;53.348;-1.496;2022-11-15T03:19:08;6.45;;;1.30;;
73919;SDS011;62266;53.348;-1.496;2022-11-15T03:21:55;7.72;;;1.60;;
73919;SDS011;62266;53.348;-1.496;2022-11-15T03:24:21;3.00;;;1.48;;
73919;SDS011;62266;53.348;-1.496;2022-11-15T03:26:48;7.85;;;1.48;;
73919;SDS011;62266;53.348;-1.496;2022-11-15T03:29:16;5.97;;;1.13;;
73919;SDS011;62266;53.348;-1.496;2022-11-15T03:31:53;9.80;;;1.75;;
73919;SDS011;62266;53.348;-1.496;2022-11-15T03:37:10;4.32;;;1.00;;
73919;SDS011;62266;53.348;-1.496;2022-11-15T03:39:37;3.25;;;1.10;;
73919;SDS011;62266;53.348;-1.496;2022-11-15T03:47:10;4.17;;;1.67;;
73919;SDS011;62266;53.348;-1.496;2022-11-15T03:49:38;8.00;;;2.15;;
73919;SDS011;62266;53.348;-1.496;2022-11-15T03:52:07;6.32;;;1.50;;
73919;SDS011;62266;53.348;-1.496;2022-11-15T03:54:35;8.60;;;2.30;;
73919;SDS011;62266;53.348;-1.496;2022-11-15T03:57:00;7.68;;;1.60;;
73919;SDS011;62266;53.348;-1.496;2022-11-15T03:59:26;6.73;;;1.47;;
73919;SDS011;62266;53.348;-1.496;2022-11-15T04:01:51;5.13;;;1.67;;
73919;SDS011;62266;53.348;-1.496;2022-11-15T04:04:18;3.67;;;1.20;;
73919;SDS011;62266;53.348;-1.496;2022-11-15T04:06:43;7.20;;;1.70;;
73919;SDS011;62266;53.348;-1.496;2022-11-15T04:09:09;5.63;;;1.30;;
73919;SDS011;62266;53.348;-1.496;2022-11-15T04:11:35;6.47;;;1.38;;
73919;SDS011;62266;53.348;-1.496;2022-11-15T04:14:00;3.90;;;1.07;;
73919;SDS011;62266;53.348;-1.496;2022-11-15T04:16:26;4.53;;;1.10;;
73919;SDS011;62266;53.348;-1.496;2022-11-15T04:18:51;5.97;;;1.40;;
73919;SDS011;62266;53.348;-1.496;2022-11-15T04:21:37;6.37;;;1.07;;
73919;SDS011;62266;53.348;-1.496;2022-11-15T04:24:22;4.30;;;1.40;;
73919;SDS011;62266;53.348;-1.496;2022-11-15T04:26:47;5.93;;;2.00;;
73919;SDS011;62266;53.348;-1.496;2022-11-15T04:29:13;7.37;;;1.90;;
73919;SDS011;62266;53.348;-1.496;2022-11-15T04:31:57;6.20;;;1.50;;
73919;SDS011;62266;53.348;-1.496;2022-11-15T04:34:23;4.43;;;1.63;;
73919;SDS011;62266;53.348;-1.496;2022-11-15T04:36:48;10.03;;;2.40;;
73919;SDS011;62266;53.348;-1.496;2022-11-15T04:39:32;6.05;;;1.27;;
73919;SDS011;62266;53.348;-1.496;2022-11-15T04:41:58;7.13;;;1.40;;
73919;SDS011;62266;53.348;-1.496;2022-11-15T04:44:23;5.85;;;1.10;;
73919;SDS011;62266;53.348;-1.496;2022-11-15T04:46:50;7.50;;;1.53;;
73919;SDS011;62266;53.348;-1.496;2022-11-15T04:49:15;4.72;;;1.38;;
73919;SDS011;62266;53.348;-1.496;2022-11-15T04:51:41;7.63;;;1.43;;
73919;SDS011;62266;53.348;-1.496;2022-11-15T04:54:06;5.20;;;1.40;;
73919;SDS011;62266;53.348;-1.496;2022-11-15T04:56:32;10.07;;;2.05;;
73919;SDS011;62266;53.348;-1.496;2022-11-15T04:58:58;5.93;;;1.60;;
73919;SDS011;62266;53.348;-1.496;2022-11-15T05:01:23;11.30;;;1.98;;
73919;SDS011;62266;53.348;-1.496;2022-11-15T05:03:49;8.97;;;1.47;;
73919;SDS011;62266;53.348;-1.496;2022-11-15T05:06:33;6.53;;;1.60;;
73919;SDS011;62266;53.348;-1.496;2022-11-15T05:08:59;8.10;;;2.03;;
73919;SDS011;62266;53.348;-1.496;2022-11-15T05:11:24;7.67;;;1.97;;
73919;SDS011;62266;53.348;-1.496;2022-11-15T05:13:51;5.45;;;2.42;;
73919;SDS011;62266;53.348;-1.496;2022-11-15T05:16:17;5.03;;;1.93;;
73919;SDS011;62266;53.348;-1.496;2022-11-15T05:18:43;6.55;;;2.25;;
73919;SDS011;62266;53.348;-1.496;2022-11-15T05:21:09;7.30;;;2.07;;
73919;SDS011;62266;53.348;-1.496;2022-11-15T05:23:36;8.57;;;2.05;;
73919;SDS011;62266;53.348;-1.496;2022-11-15T05:26:03;8.23;;;2.38;;
73919;SDS011;62266;53.348;-1.496;2022-11-15T05:28:29;10.67;;;1.80;;
73919;SDS011;62266;53.348;-1.496;2022-11-15T05:31:28;11.63;;;2.08;;
73919;SDS011;62266;53.348;-1.496;2022-11-15T05:33:48;13.32;;;3.65;;
73919;SDS011;62266;53.348;-1.496;2022-11-15T05:36:28;7.88;;;2.20;;
73919;SDS011;62266;53.348;-1.496;2022-11-15T05:39:00;7.70;;;2.60;;
73919;SDS011;62266;53.348;-1.496;2022-11-15T05:41:27;9.52;;;2.03;;
73919;SDS011;62266;53.348;-1.496;2022-11-15T05:44:01;5.95;;;2.65;;
73919;SDS011;62266;53.348;-1.496;2022-11-15T05:46:28;8.32;;;1.83;;
73919;SDS011;62266;53.348;-1.496;2022-11-15T05:48:54;8.13;;;3.05;;
73919;SDS011;62266;53.348;-1.496;2022-11-15T05:51:22;9.87;;;2.80;;
73919;SDS011;62266;53.348;-1.496;2022-11-15T05:53:48;8.35;;;2.30;;
73919;SDS011;62266;53.348;-1.496;2022-11-15T05:56:15;7.95;;;2.65;;
73919;SDS011;62266;53.348;-1.496;2022-11-15T05:58:41;8.50;;;3.00;;
73919;SDS011;62266;53.348;-1.496;2022-11-15T06:01:08;9.27;;;2.72;;
73919;SDS011;62266;53.348;-1.496;2022-11-15T06:03:34;7.60;;;2.67;;
73919;SDS011;62266;53.348;-1.496;2022-11-15T06:06:01;5.55;;;3.35;;
73919;SDS011;62266;53.348;-1.496;2022-11-15T06:08:26;7.28;;;2.72;;
73919;SDS011;62266;53.348;-1.496;2022-11-15T06:10:52;8.83;;;2.57;;
73919;SDS011;62266;53.348;-1.496;2022-11-15T06:13:20;6.15;;;2.40;;
73919;SDS011;62266;53.348;-1.496;2022-11-15T06:15:45;7.10;;;2.70;;
73919;SDS011;62266;53.348;-1.496;2022-11-15T06:18:11;9.82;;;3.20;;
73919;SDS011;62266;53.348;-1.496;2022-11-15T06:20:36;6.37;;;2.30;;
73919;SDS011;62266;53.348;-1.496;2022-11-15T06:23:02;6.07;;;2.70;;
73919;SDS011;62266;53.348;-1.496;2022-11-15T06:25:29;10.18;;;2.60;;
73919;SDS011;62266;53.348;-1.496;2022-11-15T06:27:56;6.72;;;2.88;;
73919;SDS011;62266;53.348;-1.496;2022-11-15T06:30:23;6.40;;;2.58;;
73919;SDS011;62266;53.348;-1.496;2022-11-15T06:32:49;10.07;;;3.65;;
73919;SDS011;62266;53.348;-1.496;2022-11-15T06:35:15;7.40;;;2.30;;
73919;SDS011;62266;53.348;-1.496;2022-11-15T06:37:41;5.27;;;2.40;;
73919;SDS011;62266;53.348;-1.496;2022-11-15T06:40:07;5.15;;;2.55;;
73919;SDS011;62266;53.348;-1.496;2022-11-15T06:42:34;8.40;;;2.90;;
73919;SDS011;62266;53.348;-1.496;2022-11-15T06:44:59;6.63;;;2.83;;
73919;SDS011;62266;53.348;-1.496;2022-11-15T06:47:25;7.90;;;2.50;;
73919;SDS011;62266;53.348;-1.496;2022-11-15T06:49:51;8.20;;;2.60;;
73919;SDS011;62266;53.348;-1.496;2022-11-15T06:52:18;6.10;;;2.67;;
73919;SDS011;62266;53.348;-1.496;2022-11-15T06:54:44;6.00;;;2.72;;
73919;SDS011;62266;53.348;-1.496;2022-11-15T06:57:10;7.40;;;3.20;;
73919;SDS011;62266;53.348;-1.496;2022-11-15T06:59:36;5.65;;;3.00;;
73919;SDS011;62266;53.348;-1.496;2022-11-15T07:02:01;7.80;;;3.30;;
73919;SDS011;62266;53.348;-1.496;2022-11-15T07:04:27;6.47;;;2.55;;
73919;SDS011;62266;53.348;-1.496;2022-11-15T07:06:53;5.68;;;3.17;;
73919;SDS011;62266;53.348;-1.496;2022-11-15T07:09:21;6.40;;;3.20;;
73919;SDS011;62266;53.348;-1.496;2022-11-15T07:11:47;5.32;;;2.85;;
73919;SDS011;62266;53.348;-1.496;2022-11-15T07:14:12;5.43;;;2.83;;
73919;SDS011;62266;53.348;-1.496;2022-11-15T07:16:38;5.97;;;3.10;;
73919;SDS011;62266;53.348;-1.496;2022-11-15T07:19:04;7.10;;;2.83;;
73919;SDS011;62266;53.348;-1.496;2022-11-15T07:21:29;6.18;;;3.03;;
73919;SDS011;62266;53.348;-1.496;2022-11-15T07:23:55;5.63;;;3.07;;
73919;SDS011;62266;53.348;-1.496;2022-11-15T07:26:21;8.40;;;3.53;;
73919;SDS011;62266;53.348;-1.496;2022-11-15T07:28:46;6.03;;;3.47;;
73919;SDS011;62266;53.348;-1.496;2022-11-15T07:31:12;4.95;;;3.15;;
73919;SDS011;62266;53.348;-1.496;2022-11-15T07:33:37;6.27;;;3.50;;
73919;SDS011;62266;53.348;-1.496;2022-11-15T07:36:03;9.17;;;3.30;;
73919;SDS011;62266;53.348;-1.496;2022-11-15T07:38:30;6.35;;;3.30;;
73919;SDS011;62266;53.348;-1.496;2022-11-15T07:40:57;4.03;;;3.45;;
73919;SDS011;62266;53.348;-1.496;2022-11-15T07:43:23;6.35;;;3.28;;
73919;SDS011;62266;53.348;-1.496;2022-11-15T07:45:49;5.67;;;3.50;;
73919;SDS011;62266;53.348;-1.496;2022-11-15T07:48:15;5.72;;;2.90;;
73919;SDS011;62266;53.348;-1.496;2022-11-15T07:50:40;4.93;;;2.73;;
73919;SDS011;62266;53.348;-1.496;2022-11-15T07:53:07;7.25;;;3.20;;
73919;SDS011;62266;53.348;-1.496;2022-11-15T07:55:33;5.40;;;3.50;;
73919;SDS011;62266;53.348;-1.496;2022-11-15T07:58:00;5.13;;;3.40;;
73919;SDS011;62266;53.348;-1.496;2022-11-15T08:00:35;5.63;;;3.38;;
73919;SDS011;62266;53.348;-1.496;2022-11-15T08:03:08;7.47;;;3.03;;
73919;SDS011;62266;53.348;-1.496;2022-11-15T08:05:35;5.67;;;3.27;;
73919;SDS011;62266;53.348;-1.496;2022-11-15T08:08:02;6.20;;;3.35;;
73919;SDS011;62266;53.348;-1.496;2022-11-15T08:10:28;8.38;;;3.45;;
73919;SDS011;62266;53.348;-1.496;2022-11-15T08:12:58;9.05;;;3.58;;
73919;SDS011;62266;53.348;-1.496;2022-11-15T08:15:28;6.90;;;3.75;;
73919;SDS011;62266;53.348;-1.496;2022-11-15T08:17:57;6.03;;;3.40;;
73919;SDS011;62266;53.348;-1.496;2022-11-15T08:20:23;7.20;;;3.97;;
73919;SDS011;62266;53.348;-1.496;2022-11-15T08:22:49;6.22;;;4.03;;
73919;SDS011;62266;53.348;-1.496;2022-11-15T08:25:15;7.03;;;4.33;;
73919;SDS011;62266;53.348;-1.496;2022-11-15T08:27:40;9.27;;;4.05;;
73919;SDS011;62266;53.348;-1.496;2022-11-15T08:30:06;5.67;;;3.33;;
73919;SDS011;62266;53.348;-1.496;2022-11-15T08:32:53;10.30;;;3.67;;
73919;SDS011;62266;53.348;-1.496;2022-11-15T08:35:50;6.93;;;3.80;;
73919;SDS011;62266;53.348;-1.496;2022-11-15T08:38:22;6.38;;;3.92;;
73919;SDS011;62266;53.348;-1.496;2022-11-15T08:40:52;5.95;;;4.07;;
73919;SDS011;62266;53.348;-1.496;2022-11-15T08:43:18;6.13;;;4.40;;
73919;SDS011;62266;53.348;-1.496;2022-11-15T08:45:45;7.90;;;3.90;;
73919;SDS011;62266;53.348;-1.496;2022-11-15T08:48:16;6.13;;;3.85;;
73919;SDS011;62266;53.348;-1.496;2022-11-15T08:50:42;6.60;;;3.88;;
73919;SDS011;62266;53.348;-1.496;2022-11-15T08:53:09;8.73;;;3.65;;
73919;SDS011;62266;53.348;-1.496;2022-11-15T08:55:38;6.30;;;3.40;;
73919;SDS011;62266;53.348;-1.496;2022-11-15T08:58:08;6.32;;;3.60;;
73919;SDS011;62266;53.348;-1.496;2022-11-15T09:00:33;21.57;;;4.10;;
73919;SDS011;62266;53.348;-1.496;2022-11-15T09:02:59;7.60;;;3.97;;
73919;SDS011;62266;53.348;-1.496;2022-11-15T09:05:24;7.83;;;3.87;;
73919;SDS011;62266;53.348;-1.496;2022-11-15T09:07:53;5.85;;;3.78;;
73919;SDS011;62266;53.348;-1.496;2022-11-15T09:10:21;5.60;;;3.50;;
73919;SDS011;62266;53.348;-1.496;2022-11-15T09:12:47;5.85;;;3.88;;
73919;SDS011;62266;53.348;-1.496;2022-11-15T09:15:15;7.53;;;3.57;;
73919;SDS011;62266;53.348;-1.496;2022-11-15T09:17:41;4.25;;;3.13;;
73919;SDS011;62266;53.348;-1.496;2022-11-15T09:20:07;6.18;;;2.92;;
73919;SDS011;62266;53.348;-1.496;2022-11-15T09:22:34;4.07;;;2.78;;
73919;SDS011;62266;53.348;-1.496;2022-11-15T09:24:59;4.03;;;3.20;;
73919;SDS011;62266;53.348;-1.496;2022-11-15T09:27:28;4.17;;;2.47;;
73919;SDS011;62266;53.348;-1.496;2022-11-15T09:29:55;4.47;;;2.47;;
73919;SDS011;62266;53.348;-1.496;2022-11-15T09:32:21;3.15;;;2.00;;
73919;SDS011;62266;53.348;-1.496;2022-11-15T09:34:49;3.38;;;1.98;;
73919;SDS011;62266;53.348;-1.496;2022-11-15T09:37:15;2.97;;;1.90;;
73919;SDS011;62266;53.348;-1.496;2022-11-15T09:39:40;4.40;;;1.95;;
73919;SDS011;62266;53.348;-1.496;2022-11-15T09:50:19;4.18;;;1.92;;
73919;SDS011;62266;53.348;-1.496;2022-11-15T09:53:02;2.78;;;1.60;;
73919;SDS011;62266;53.348;-1.496;2022-11-15T09:55:40;4.40;;;1.80;;
73919;SDS011;62266;53.348;-1.496;2022-11-15T09:58:20;4.38;;;2.00;;
73919;SDS011;62266;53.348;-1.496;2022-11-15T10:00:54;2.30;;;1.80;;
73919;SDS011;62266;53.348;-1.496;2022-11-15T10:03:28;3.63;;;1.95;;
73919;SDS011;62266;53.348;-1.496;2022-11-15T10:06:00;2.85;;;1.77;;
73919;SDS011;62266;53.348;-1.496;2022-11-15T10:11:16;3.72;;;2.10;;
73919;SDS011;62266;53.348;-1.496;2022-11-15T10:13:44;6.72;;;2.50;;
73919;SDS011;62266;53.348;-1.496;2022-11-15T10:19:09;3.58;;;1.83;;
73919;SDS011;62266;53.348;-1.496;2022-11-15T10:22:27;3.87;;;1.80;;
73919;SDS011;62266;53.348;-1.496;2022-11-15T10:30:28;3.53;;;1.55;;
73919;SDS011;62266;53.348;-1.496;2022-11-15T10:38:55;3.10;;;1.40;;
73919;SDS011;62266;53.348;-1.496;2022-11-15T10:44:01;1.90;;;1.40;;
73919;SDS011;62266;53.348;-1.496;2022-11-15T10:46:35;4.57;;;1.45;;
73919;SDS011;62266;53.348;-1.496;2022-11-15T10:49:11;3.73;;;1.30;;
73919;SDS011;62266;53.348;-1.496;2022-11-15T10:51:58;3.63;;;1.40;;
73919;SDS011;62266;53.348;-1.496;2022-11-15T10:54:37;4.60;;;1.40;;
73919;SDS011;62266;53.348;-1.496;2022-11-15T10:57:28;2.72;;;1.10;;
73919;SDS011;62266;53.348;-1.496;2022-11-15T11:07:01;2.65;;;1.27;;
73919;SDS011;62266;53.348;-1.496;2022-11-15T11:09:57;2.20;;;1.27;;
73919;SDS011;62266;53.348;-1.496;2022-11-15T11:13:15;3.28;;;1.67;;
73919;SDS011;62266;53.348;-1.496;2022-11-15T11:27:18;4.05;;;1.98;;
73919;SDS011;62266;53.348;-1.496;2022-11-15T11:30:11;6.57;;;2.70;;
73919;SDS011;62266;53.348;-1.496;2022-11-15T11:38:05;4.88;;;2.08;;
73919;SDS011;62266;53.348;-1.496;2022-11-15T11:40:37;4.50;;;2.17;;
73919;SDS011;62266;53.348;-1.496;2022-11-15T11:45:48;4.60;;;1.90;;
73919;SDS011;62266;53.348;-1.496;2022-11-15T11:51:12;3.13;;;2.22;;
73919;SDS011;62266;53.348;-1.496;2022-11-15T11:53:53;2.40;;;2.20;;
73919;SDS011;62266;53.348;-1.496;2022-11-15T11:56:43;3.55;;;2.40;;
73919;SDS011;62266;53.348;-1.496;2022-11-15T11:59:25;3.73;;;2.40;;
73919;SDS011;62266;53.348;-1.496;2022-11-15T12:02:14;2.67;;;1.95;;
73919;SDS011;62266;53.348;-1.496;2022-11-15T12:04:51;2.75;;;2.13;;
73919;SDS011;62266;53.348;-1.496;2022-11-15T12:07:37;4.68;;;2.45;;
73919;SDS011;62266;53.348;-1.496;2022-11-15T12:10:25;4.22;;;2.33;;
73919;SDS011;62266;53.348;-1.496;2022-11-15T12:18:12;3.33;;;1.67;;
73919;SDS011;62266;53.348;-1.496;2022-11-15T12:20:41;2.30;;;1.45;;
73919;SDS011;62266;53.348;-1.496;2022-11-15T12:23:16;2.47;;;1.60;;
73919;SDS011;62266;53.348;-1.496;2022-11-15T12:25:48;2.60;;;1.40;;
73919;SDS011;62266;53.348;-1.496;2022-11-15T12:28:19;2.03;;;1.20;;
73919;SDS011;62266;53.348;-1.496;2022-11-15T12:30:52;2.05;;;1.40;;
73919;SDS011;62266;53.348;-1.496;2022-11-15T12:33:46;2.17;;;1.40;;
73919;SDS011;62266;53.348;-1.496;2022-11-15T12:38:57;2.77;;;1.50;;
73919;SDS011;62266;53.348;-1.496;2022-11-15T12:41:40;2.42;;;1.55;;
73919;SDS011;62266;53.348;-1.496;2022-11-15T12:44:11;1.95;;;1.40;;
73919;SDS011;62266;53.348;-1.496;2022-11-15T13:17:49;3.03;;;1.83;;
73919;SDS011;62266;53.348;-1.496;2022-11-15T13:20:22;2.40;;;2.00;;
73919;SDS011;62266;53.348;-1.496;2022-11-15T13:30:49;2.67;;;1.90;;
73919;SDS011;62266;53.348;-1.496;2022-11-15T13:33:21;3.47;;;1.20;;
73919;SDS011;62266;53.348;-1.496;2022-11-15T13:35:50;1.65;;;1.40;;
73919;SDS011;62266;53.348;-1.496;2022-11-15T13:38:39;1.40;;;1.30;;
73919;SDS011;62266;53.348;-1.496;2022-11-15T13:41:11;1.23;;;0.90;;
73919;SDS011;62266;53.348;-1.496;2022-11-15T13:43:42;2.30;;;1.10;;
73919;SDS011;62266;53.348;-1.496;2022-11-15T13:46:19;1.63;;;0.80;;
73919;SDS011;62266;53.348;-1.496;2022-11-15T13:48:54;1.13;;;0.77;;
73919;SDS011;62266;53.348;-1.496;2022-11-15T14:00:05;1.93;;;0.67;;
73919;SDS011;62266;53.348;-1.496;2022-11-15T14:02:32;0.82;;;0.60;;
73919;SDS011;62266;53.348;-1.496;2022-11-15T14:05:01;1.40;;;1.00;;
73919;SDS011;62266;53.348;-1.496;2022-11-15T14:07:30;1.10;;;0.90;;
73919;SDS011;62266;53.348;-1.496;2022-11-15T14:09:58;1.02;;;0.82;;
73919;SDS011;62266;53.348;-1.496;2022-11-15T14:12:50;2.40;;;0.70;;
73919;SDS011;62266;53.348;-1.496;2022-11-15T14:18:01;1.77;;;0.50;;
73919;SDS011;62266;53.348;-1.496;2022-11-15T14:20:37;1.00;;;0.70;;
73919;SDS011;62266;53.348;-1.496;2022-11-15T14:23:05;1.52;;;0.80;;
73919;SDS011;62266;53.348;-1.496;2022-11-15T14:25:51;1.97;;;0.90;;
73919;SDS011;62266;53.348;-1.496;2022-11-15T14:30:53;1.42;;;0.57;;
73919;SDS011;62266;53.348;-1.496;2022-11-15T14:33:27;0.88;;;0.57;;
73919;SDS011;62266;53.348;-1.496;2022-11-15T14:35:56;2.15;;;0.68;;
73919;SDS011;62266;53.348;-1.496;2022-11-15T14:38:26;1.00;;;0.60;;
73919;SDS011;62266;53.348;-1.496;2022-11-15T14:40:52;1.13;;;0.60;;
73919;SDS011;62266;53.348;-1.496;2022-11-15T14:43:18;1.08;;;0.77;;
73919;SDS011;62266;53.348;-1.496;2022-11-15T14:45:44;1.30;;;0.67;;
73919;SDS011;62266;53.348;-1.496;2022-11-15T14:48:09;2.30;;;0.73;;
73919;SDS011;62266;53.348;-1.496;2022-11-15T14:50:35;1.80;;;0.80;;
73919;SDS011;62266;53.348;-1.496;2022-11-15T14:53:01;1.27;;;0.80;;
73919;SDS011;62266;53.348;-1.496;2022-11-15T14:55:28;1.17;;;0.80;;
73919;SDS011;62266;53.348;-1.496;2022-11-15T14:58:01;1.50;;;0.95;;
73919;SDS011;62266;53.348;-1.496;2022-11-15T15:00:28;1.95;;;1.02;;
73919;SDS011;62266;53.348;-1.496;2022-11-15T15:02:57;0.93;;;0.85;;
73919;SDS011;62266;53.348;-1.496;2022-11-15T15:05:41;0.87;;;0.50;;
73919;SDS011;62266;53.348;-1.496;2022-11-15T15:08:08;1.10;;;0.70;;
73919;SDS011;62266;53.348;-1.496;2022-11-15T15:10:40;2.10;;;0.90;;
73919;SDS011;62266;53.348;-1.496;2022-11-15T15:13:25;1.77;;;1.10;;
73919;SDS011;62266;53.348;-1.496;2022-11-15T15:15:52;1.77;;;1.15;;
73919;SDS011;62266;53.348;-1.496;2022-11-15T15:18:18;5.33;;;3.70;;
73919;SDS011;62266;53.348;-1.496;2022-11-15T15:20:44;9.05;;;6.22;;
73919;SDS011;62266;53.348;-1.496;2022-11-15T15:23:17;7.45;;;4.82;;
73919;SDS011;62266;53.348;-1.496;2022-11-15T15:25:45;5.18;;;3.75;;
73919;SDS011;62266;53.348;-1.496;2022-11-15T15:28:12;6.90;;;3.72;;
73919;SDS011;62266;53.348;-1.496;2022-11-15T15:30:38;4.37;;;2.90;;
73919;SDS011;62266;53.348;-1.496;2022-11-15T15:33:04;6.60;;;2.22;;
73919;SDS011;62266;53.348;-1.496;2022-11-15T15:35:30;3.33;;;1.70;;
73919;SDS011;62266;53.348;-1.496;2022-11-15T15:37:57;3.25;;;1.90;;
73919;SDS011;62266;53.348;-1.496;2022-11-15T15:40:24;4.63;;;2.95;;
73919;SDS011;62266;53.348;-1.496;2022-11-15T15:42:51;6.32;;;3.60;;
73919;SDS011;62266;53.348;-1.496;2022-11-15T15:45:17;8.70;;;5.37;;
73919;SDS011;62266;53.348;-1.496;2022-11-15T15:47:43;9.43;;;5.85;;
73919;SDS011;62266;53.348;-1.496;2022-11-15T15:50:32;7.22;;;4.88;;
73919;SDS011;62266;53.348;-1.496;2022-11-15T15:52:58;6.55;;;4.30;;
73919;SDS011;62266;53.348;-1.496;2022-11-15T15:55:25;6.03;;;3.90;;
73919;SDS011;62266;53.348;-1.496;2022-11-15T15:57:51;5.95;;;2.70;;
73919;SDS011;62266;53.348;-1.496;2022-11-15T16:00:28;6.78;;;3.67;;
73919;SDS011;62266;53.348;-1.496;2022-11-15T16:02:54;9.13;;;5.93;;
73919;SDS011;62266;53.348;-1.496;2022-11-15T16:05:20;14.37;;;8.27;;
73919;SDS011;62266;53.348;-1.496;2022-11-15T16:07:55;12.52;;;7.00;;
73919;SDS011;62266;53.348;-1.496;2022-11-15T16:10:27;8.98;;;4.80;;
73919;SDS011;62266;53.348;-1.496;2022-11-15T16:12:58;10.70;;;5.68;;
73919;SDS011;62266;53.348;-1.496;2022-11-15T16:15:25;11.75;;;6.25;;
73919;SDS011;62266;53.348;-1.496;2022-11-15T16:18:09;9.00;;;4.37;;
73919;SDS011;62266;53.348;-1.496;2022-11-15T16:21:25;6.65;;;2.80;;
73919;SDS011;62266;53.348;-1.496;2022-11-15T16:23:53;5.70;;;3.15;;
73919;SDS011;62266;53.348;-1.496;2022-11-15T16:26:28;5.27;;;2.87;;
73919;SDS011;62266;53.348;-1.496;2022-11-15T16:28:55;5.25;;;3.13;;
73919;SDS011;62266;53.348;-1.496;2022-11-15T16:31:20;6.05;;;2.97;;
73919;SDS011;62266;53.348;-1.496;2022-11-15T16:33:47;6.93;;;3.20;;
73919;SDS011;62266;53.348;-1.496;2022-11-15T16:36:23;6.33;;;2.83;;
73919;SDS011;62266;53.348;-1.496;2022-11-15T16:38:50;6.28;;;2.92;;
73919;SDS011;62266;53.348;-1.496;2022-11-15T16:41:16;5.00;;;2.75;;
73919;SDS011;62266;53.348;-1.496;2022-11-15T16:43:47;6.22;;;3.03;;
73919;SDS011;62266;53.348;-1.496;2022-11-15T16:46:20;5.00;;;3.00;;
73919;SDS011;62266;53.348;-1.496;2022-11-15T16:48:47;4.40;;;2.22;;
73919;SDS011;62266;53.348;-1.496;2022-11-15T16:51:13;6.10;;;3.00;;
73919;SDS011;62266;53.348;-1.496;2022-11-15T16:53:39;8.30;;;3.03;;
73919;SDS011;62266;53.348;-1.496;2022-11-15T16:56:38;6.60;;;3.10;;
73919;SDS011;62266;53.348;-1.496;2022-11-15T16:58:57;8.48;;;3.33;;
73919;SDS011;62266;53.348;-1.496;2022-11-15T17:01:28;7.22;;;2.78;;
73919;SDS011;62266;53.348;-1.496;2022-11-15T17:03:55;6.45;;;2.35;;
73919;SDS011;62266;53.348;-1.496;2022-11-15T17:06:21;9.50;;;2.70;;
73919;SDS011;62266;53.348;-1.496;2022-11-15T17:08:47;8.27;;;4.25;;
73919;SDS011;62266;53.348;-1.496;2022-11-15T17:11:17;9.38;;;2.92;;
73919;SDS011;62266;53.348;-1.496;2022-11-15T17:13:44;8.80;;;2.53;;
73919;SDS011;62266;53.348;-1.496;2022-11-15T17:16:14;7.40;;;2.70;;
73919;SDS011;62266;53.348;-1.496;2022-11-15T17:18:42;6.47;;;2.55;;